createdAt,value
2023-04-07T00:04:29.000Z,0.00
2023-04-07T00:09:23.000Z,0.00
2023-04-07T00:14:16.000Z,0.00
2023-04-07T00:19:10.000Z,0.00
2023-04-07T00:24:04.000Z,0.00
2023-04-07T00:28:58.000Z,0.00
2023-04-07T00:33:50.000Z,0.00
2023-04-07T00:38:43.000Z,0.00
2023-04-07T00:43:37.000Z,0.00
2023-04-07T00:48:28.000Z,0.00
2023-04-07T00:53:25.000Z,0.00
2023-04-07T00:58:12.000Z,0.00
2023-04-07T01:03:06.000Z,0.00
2023-04-07T01:08:00.000Z,0.00
2023-04-07T01:12:54.000Z,0.00
2023-04-07T01:17:48.000Z,0.00
2023-04-07T01:22:42.000Z,0.00
2023-04-07T01:27:38.000Z,0.00
2023-04-07T01:32:28.000Z,0.00
2023-04-07T01:37:21.000Z,0.00
2023-04-07T01:42:15.000Z,0.00
2023-04-07T01:47:09.000Z,0.00
2023-04-07T01:52:03.000Z,0.00
2023-04-07T01:56:57.000Z,0.00
2023-04-07T02:01:51.000Z,0.00
2023-04-07T02:06:45.000Z,0.00
2023-04-07T02:11:38.000Z,0.00
2023-04-07T02:16:29.000Z,0.00
2023-04-07T02:21:24.000Z,0.00
2023-04-07T02:26:16.000Z,0.00
2023-04-07T02:31:10.000Z,0.00
2023-04-07T02:36:04.000Z,0.00
2023-04-07T02:40:58.000Z,0.00
2023-04-07T02:45:52.000Z,0.00
2023-04-07T02:50:46.000Z,0.00
2023-04-07T02:55:41.000Z,0.00
2023-04-07T03:00:35.000Z,0.00
2023-04-07T03:05:29.000Z,0.00
2023-04-07T03:10:23.000Z,0.00
2023-04-07T03:15:17.000Z,0.00
2023-04-07T03:20:10.000Z,0.00
2023-04-07T03:25:04.000Z,0.00
2023-04-07T03:29:58.000Z,0.00
2023-04-07T03:34:52.000Z,0.00
2023-04-07T03:39:46.000Z,0.00
2023-04-07T03:44:40.000Z,0.00
2023-04-07T03:49:34.000Z,0.00
2023-04-07T03:54:28.000Z,0.00
2023-04-07T03:59:22.000Z,0.00
2023-04-07T04:04:16.000Z,0.00
2023-04-07T04:09:10.000Z,0.00
2023-04-07T04:14:04.000Z,0.00
2023-04-07T04:18:58.000Z,0.00
2023-04-07T04:23:52.000Z,0.00
2023-04-07T04:28:46.000Z,0.00
2023-04-07T04:33:40.000Z,0.00
2023-04-07T04:38:33.000Z,0.00
2023-04-07T04:43:28.000Z,0.83
2023-04-07T04:48:19.000Z,1.67
2023-04-07T04:53:12.000Z,2.50
2023-04-07T04:58:06.000Z,2.50
2023-04-07T05:03:00.000Z,5.83
2023-04-07T05:07:54.000Z,8.33
2023-04-07T05:12:49.000Z,14.17
2023-04-07T05:17:43.000Z,15.00
2023-04-07T05:22:37.000Z,19.17
2023-04-07T05:27:30.000Z,27.50
2023-04-07T05:32:26.000Z,46.67
2023-04-07T05:37:16.000Z,42.50
2023-04-07T05:42:13.000Z,60.00
2023-04-07T05:47:03.000Z,70.83
2023-04-07T05:51:57.000Z,66.67
2023-04-07T05:56:51.000Z,86.67
2023-04-07T06:01:45.000Z,123.33
2023-04-07T06:06:39.000Z,146.67
2023-04-07T06:11:32.000Z,179.17
2023-04-07T06:16:26.000Z,189.17
2023-04-07T06:21:18.000Z,228.33
2023-04-07T06:26:12.000Z,236.67
2023-04-07T06:31:06.000Z,198.33
2023-04-07T06:36:01.000Z,219.17
2023-04-07T06:40:55.000Z,265.00
2023-04-07T06:45:50.000Z,299.17
2023-04-07T06:50:44.000Z,365.00
2023-04-07T06:55:38.000Z,341.67
2023-04-07T07:00:32.000Z,485.00
2023-04-07T07:05:26.000Z,485.83
2023-04-07T07:10:20.000Z,447.50
2023-04-07T07:15:14.000Z,453.33
2023-04-07T07:20:08.000Z,509.17
2023-04-07T07:25:00.000Z,445.83
2023-04-07T07:29:55.000Z,453.33
2023-04-07T07:34:49.000Z,516.67
2023-04-07T07:39:43.000Z,460.00
2023-04-07T07:44:37.000Z,501.67
2023-04-07T07:49:32.000Z,460.83
2023-04-07T07:54:26.000Z,435.00
2023-04-07T07:59:21.000Z,435.83
2023-04-07T08:04:15.000Z,470.83
2023-04-07T08:09:09.000Z,416.67
2023-04-07T08:14:04.000Z,201.67
2023-04-07T08:18:57.000Z,256.67
2023-04-07T08:23:51.000Z,243.33
2023-04-07T08:28:45.000Z,318.33
2023-04-07T08:33:39.000Z,428.33
2023-04-07T08:38:36.000Z,363.33
2023-04-07T08:43:28.000Z,340.83
2023-04-07T08:48:22.000Z,330.00
2023-04-07T08:53:16.000Z,275.00
2023-04-07T08:58:11.000Z,310.00
2023-04-07T09:03:05.000Z,512.50
2023-04-07T09:07:59.000Z,390.83
2023-04-07T09:12:53.000Z,430.83
2023-04-07T09:17:48.000Z,578.33
2023-04-07T09:22:42.000Z,809.17
2023-04-07T09:27:37.000Z,688.33
2023-04-07T09:32:31.000Z,435.83
2023-04-07T09:37:26.000Z,418.33
2023-04-07T09:42:18.000Z,861.67
2023-04-07T09:47:11.000Z,1069.17
2023-04-07T09:52:05.000Z,1483.33
2023-04-07T09:57:00.000Z,2151.67
2023-04-07T10:01:52.000Z,2336.67
2023-04-07T10:06:47.000Z,1598.33
2023-04-07T10:11:42.000Z,1853.33
2023-04-07T10:16:37.000Z,2213.33
2023-04-07T10:21:31.000Z,1688.33
2023-04-07T10:26:26.000Z,1440.00
2023-04-07T10:31:20.000Z,1198.33
2023-04-07T10:36:14.000Z,782.50
2023-04-07T10:41:09.000Z,482.50
2023-04-07T10:46:03.000Z,846.67
2023-04-07T10:50:57.000Z,1131.67
2023-04-07T10:55:51.000Z,1051.67
2023-04-07T11:00:46.000Z,835.00
2023-04-07T11:05:40.000Z,749.17
2023-04-07T11:10:33.000Z,1084.17
2023-04-07T11:15:28.000Z,1447.50
2023-04-07T11:20:22.000Z,2088.33
2023-04-07T11:25:17.000Z,2100.83
2023-04-07T11:30:11.000Z,1918.33
2023-04-07T11:35:05.000Z,1415.00
2023-04-07T11:40:00.000Z,1013.33
2023-04-07T11:44:54.000Z,1068.33
2023-04-07T11:49:48.000Z,1677.50
2023-04-07T11:54:42.000Z,1600.83
2023-04-07T11:59:36.000Z,1333.33
2023-04-07T12:04:30.000Z,1254.17
2023-04-07T12:09:24.000Z,2006.67
2023-04-07T12:14:18.000Z,1827.50
2023-04-07T12:19:12.000Z,1901.67
2023-04-07T12:24:07.000Z,1491.67
2023-04-07T12:29:01.000Z,1435.83
2023-04-07T12:33:55.000Z,1107.50
2023-04-07T12:38:50.000Z,770.00
2023-04-07T12:43:44.000Z,880.00
2023-04-07T12:48:39.000Z,494.17
2023-04-07T12:53:32.000Z,366.67
2023-04-07T12:58:28.000Z,535.00
2023-04-07T13:03:19.000Z,785.83
2023-04-07T13:08:12.000Z,790.00
2023-04-07T13:13:06.000Z,909.17
2023-04-07T13:18:00.000Z,1010.00
2023-04-07T13:22:54.000Z,1143.33
2023-04-07T13:27:48.000Z,1278.33
2023-04-07T13:32:42.000Z,1386.67
2023-04-07T13:37:37.000Z,1690.83
2023-04-07T13:42:31.000Z,2130.00
2023-04-07T13:47:25.000Z,2279.17
2023-04-07T13:52:20.000Z,3100.83
2023-04-07T13:57:14.000Z,2986.67
2023-04-07T14:02:09.000Z,1933.33
2023-04-07T14:07:04.000Z,2116.67
2023-04-07T14:11:58.000Z,1883.33
2023-04-07T14:16:52.000Z,1717.50
2023-04-07T14:21:46.000Z,1438.33
2023-04-07T14:26:40.000Z,1940.83
2023-04-07T14:31:34.000Z,2585.00
2023-04-07T14:36:28.000Z,2030.00
2023-04-07T14:41:22.000Z,1368.33
2023-04-07T14:46:16.000Z,1232.50
2023-04-07T14:51:10.000Z,1377.50
2023-04-07T14:56:04.000Z,2129.17
2023-04-07T15:00:58.000Z,1098.33
2023-04-07T15:05:53.000Z,1149.17
2023-04-07T15:10:47.000Z,1264.17
2023-04-07T15:15:41.000Z,865.00
2023-04-07T15:20:35.000Z,1013.33
2023-04-07T15:25:30.000Z,617.50
2023-04-07T15:30:24.000Z,407.50
2023-04-07T15:35:19.000Z,325.83
2023-04-07T15:40:13.000Z,327.50
2023-04-07T15:45:07.000Z,235.83
2023-04-07T15:50:02.000Z,228.33
2023-04-07T15:54:56.000Z,226.67
2023-04-07T15:59:50.000Z,251.67
2023-04-07T16:04:44.000Z,324.17
2023-04-07T16:09:39.000Z,345.00
2023-04-07T16:14:33.000Z,523.33
2023-04-07T16:19:28.000Z,612.50
2023-04-07T16:24:22.000Z,440.00
2023-04-07T16:29:16.000Z,353.33
2023-04-07T16:34:11.000Z,310.83
2023-04-07T16:39:04.000Z,188.33
2023-04-07T16:43:59.000Z,149.17
2023-04-07T16:48:56.000Z,148.33
2023-04-07T16:53:48.000Z,142.50
2023-04-07T16:58:42.000Z,152.50
2023-04-07T17:03:35.000Z,164.17
2023-04-07T17:08:29.000Z,176.67
2023-04-07T17:13:23.000Z,180.00
2023-04-07T17:18:18.000Z,126.67
2023-04-07T17:23:09.000Z,130.00
2023-04-07T17:28:03.000Z,139.17
2023-04-07T17:32:58.000Z,132.50
2023-04-07T17:37:52.000Z,111.67
2023-04-07T17:42:46.000Z,80.83
2023-04-07T17:47:40.000Z,60.00
2023-04-07T17:52:34.000Z,28.33
2023-04-07T17:57:29.000Z,25.83
2023-04-07T18:02:23.000Z,21.67
2023-04-07T18:07:17.000Z,17.50
2023-04-07T18:12:11.000Z,13.33
2023-04-07T18:17:04.000Z,7.50
2023-04-07T18:21:58.000Z,3.33
2023-04-07T18:26:52.000Z,1.67
2023-04-07T18:31:48.000Z,0.83
2023-04-07T18:36:40.000Z,0.00
2023-04-07T18:41:34.000Z,0.00
2023-04-07T18:46:29.000Z,0.00
2023-04-07T18:51:22.000Z,0.00
2023-04-07T18:56:16.000Z,0.00
2023-04-07T19:01:10.000Z,0.00
2023-04-07T19:06:03.000Z,0.00
2023-04-07T19:10:57.000Z,0.00
2023-04-07T19:15:52.000Z,0.00
2023-04-07T19:20:46.000Z,0.00
2023-04-07T19:25:39.000Z,0.00
2023-04-07T19:30:34.000Z,0.00
2023-04-07T19:35:27.000Z,0.00
2023-04-07T19:40:21.000Z,0.00
2023-04-07T19:45:15.000Z,0.00
2023-04-07T19:50:09.000Z,0.00
2023-04-07T19:55:03.000Z,0.00
2023-04-07T19:59:55.000Z,0.00
2023-04-07T20:04:49.000Z,0.00
2023-04-07T20:09:43.000Z,0.00
2023-04-07T20:14:37.000Z,0.00
2023-04-07T20:19:31.000Z,0.00
2023-04-07T20:24:25.000Z,0.00
2023-04-07T20:29:19.000Z,0.00
2023-04-07T20:34:13.000Z,0.00
2023-04-07T20:39:07.000Z,0.00
2023-04-07T20:44:01.000Z,0.00
2023-04-07T20:48:55.000Z,0.00
2023-04-07T20:53:49.000Z,0.00
2023-04-07T20:58:43.000Z,0.00
2023-04-07T21:03:37.000Z,0.00
2023-04-07T21:08:30.000Z,0.00
2023-04-07T21:13:24.000Z,0.00
2023-04-07T21:18:19.000Z,0.00
2023-04-07T21:23:12.000Z,0.00
2023-04-07T21:28:05.000Z,0.00
2023-04-07T21:32:59.000Z,0.00
2023-04-07T21:37:54.000Z,0.00
2023-04-07T21:42:48.000Z,0.00
2023-04-07T21:47:42.000Z,0.00
2023-04-07T21:52:36.000Z,0.00
2023-04-07T21:57:30.000Z,0.00
2023-04-07T22:02:23.000Z,0.00
2023-04-07T22:07:16.000Z,0.00
2023-04-07T22:12:11.000Z,0.00
2023-04-07T22:17:05.000Z,0.00
2023-04-07T22:21:59.000Z,0.00
2023-04-07T22:26:54.000Z,0.00
2023-04-07T22:31:48.000Z,0.00
2023-04-07T22:36:42.000Z,0.00
2023-04-07T22:41:34.000Z,0.00
2023-04-07T22:46:28.000Z,0.00
2023-04-07T22:51:22.000Z,0.00
2023-04-07T22:56:17.000Z,0.00
2023-04-07T23:01:11.000Z,0.00
2023-04-07T23:06:05.000Z,0.00
2023-04-07T23:10:59.000Z,0.00
2023-04-07T23:15:54.000Z,0.00
2023-04-07T23:20:48.000Z,0.00
2023-04-07T23:25:41.000Z,0.00
2023-04-07T23:30:35.000Z,0.00
2023-04-07T23:35:30.000Z,0.00
2023-04-07T23:40:24.000Z,0.00
2023-04-07T23:45:17.000Z,0.00
2023-04-07T23:50:11.000Z,0.00
2023-04-07T23:55:06.000Z,0.00
2023-04-07T23:59:54.000Z,0.00
